createdAt,value
2019-03-13T00:04:54.740Z,2.88
2019-03-13T00:10:00.354Z,3.00
2019-03-13T00:15:08.743Z,2.99
2019-03-13T00:20:14.687Z,2.96
2019-03-13T00:25:20.480Z,3.04
2019-03-13T00:30:25.820Z,3.10
2019-03-13T00:35:31.063Z,2.95
2019-03-13T00:40:36.434Z,3.09
2019-03-13T00:45:42.108Z,3.05
2019-03-13T00:50:47.703Z,3.09
2019-03-13T00:55:52.960Z,2.96
2019-03-13T01:01:02.652Z,2.99
2019-03-13T01:06:12.543Z,3.04
2019-03-13T01:11:17.920Z,3.01
2019-03-13T01:16:23.657Z,2.99
2019-03-13T01:21:30.143Z,3.00
2019-03-13T01:26:36.417Z,3.00
2019-03-13T01:31:52.345Z,2.98
2019-03-13T01:36:57.599Z,3.01
2019-03-13T01:42:02.855Z,2.94
2019-03-13T01:47:08.111Z,2.97
2019-03-13T01:52:13.375Z,3.07
2019-03-13T01:57:18.592Z,3.08
2019-03-13T02:02:23.803Z,3.11
2019-03-13T02:07:30.377Z,3.07
2019-03-13T02:12:35.823Z,3.08
2019-03-13T02:17:41.286Z,3.05
2019-03-13T02:22:47.376Z,3.06
2019-03-13T02:27:52.575Z,3.03
2019-03-13T02:32:57.776Z,3.01
2019-03-13T02:38:03.125Z,3.02
2019-03-13T02:43:08.338Z,3.15
2019-03-13T02:48:13.536Z,3.16
2019-03-13T02:53:18.837Z,3.18
2019-03-13T02:58:23.953Z,3.15
2019-03-13T03:03:30.655Z,3.15
2019-03-13T03:08:35.803Z,3.12
2019-03-13T03:13:41.063Z,3.14
2019-03-13T03:18:46.199Z,3.18
2019-03-13T03:23:51.878Z,3.22
2019-03-13T03:28:57.245Z,3.23
2019-03-13T03:34:02.976Z,3.29
2019-03-13T03:39:08.240Z,3.28
2019-03-13T03:44:14.299Z,3.30
2019-03-13T03:49:20.067Z,3.32
2019-03-13T03:54:25.239Z,3.24
2019-03-13T03:59:30.408Z,3.26
2019-03-13T04:04:35.537Z,3.27
2019-03-13T04:09:40.783Z,3.22
2019-03-13T04:14:47.554Z,3.28
2019-03-13T04:19:53.043Z,3.29
2019-03-13T04:25:13.407Z,3.37
2019-03-13T04:30:19.681Z,3.31
2019-03-13T04:35:24.910Z,3.30
2019-03-13T04:40:29.966Z,3.37
2019-03-13T04:45:35.582Z,3.43
2019-03-13T04:50:40.800Z,3.40
2019-03-13T04:55:46.142Z,3.53
2019-03-13T05:00:51.279Z,3.65
2019-03-13T05:05:56.532Z,3.63
2019-03-13T05:11:01.680Z,3.60
2019-03-13T05:16:07.065Z,3.62
2019-03-13T05:21:12.153Z,3.61
2019-03-13T05:26:17.594Z,3.64
2019-03-13T05:31:22.887Z,3.71
2019-03-13T05:36:28.029Z,3.75
2019-03-13T05:41:33.283Z,3.85
2019-03-13T05:46:39.529Z,3.94
2019-03-13T05:51:44.708Z,3.82
2019-03-13T05:56:49.857Z,3.84
2019-03-13T06:01:55.413Z,3.94
2019-03-13T06:07:00.520Z,4.03
2019-03-13T06:12:05.755Z,3.96
2019-03-13T06:17:11.144Z,4.03
2019-03-13T06:22:16.737Z,4.05
2019-03-13T06:27:22.010Z,4.14
2019-03-13T06:32:27.350Z,4.17
2019-03-13T06:37:32.776Z,4.33
2019-03-13T06:42:37.993Z,4.36
2019-03-13T06:47:43.200Z,4.53
2019-03-13T06:52:48.524Z,4.53
2019-03-13T06:57:53.618Z,4.48
2019-03-13T07:03:01.503Z,4.60
2019-03-13T07:08:24.585Z,4.72
2019-03-13T07:13:31.273Z,4.91
2019-03-13T07:18:58.787Z,4.78
2019-03-13T07:24:07.055Z,4.74
2019-03-13T07:29:19.740Z,4.69
2019-03-13T07:34:29.220Z,4.43
2019-03-13T07:39:35.984Z,4.14
2019-03-13T07:44:42.718Z,4.13
2019-03-13T07:49:52.552Z,3.91
2019-03-13T07:54:59.380Z,3.92
2019-03-13T08:00:18.424Z,4.05
2019-03-13T08:05:31.180Z,4.11
2019-03-13T08:10:54.174Z,4.17
2019-03-13T08:16:01.040Z,4.18
2019-03-13T08:21:10.706Z,4.07
2019-03-13T08:26:17.533Z,4.00
2019-03-13T08:31:30.831Z,4.10
2019-03-13T08:36:54.298Z,3.99
2019-03-13T08:42:01.053Z,4.11
2019-03-13T08:47:24.262Z,4.18
2019-03-13T08:52:30.945Z,4.18
2019-03-13T08:57:37.747Z,4.34
2019-03-13T09:02:47.154Z,4.35
2019-03-13T09:08:10.085Z,4.40
2019-03-13T09:13:33.308Z,4.46
2019-03-13T09:18:40.087Z,4.65
2019-03-13T09:23:49.952Z,4.72
2019-03-13T09:29:14.697Z,4.84
2019-03-13T09:34:22.210Z,4.83
2019-03-13T09:39:35.268Z,5.15
2019-03-13T09:44:44.646Z,5.34
2019-03-13T09:50:07.572Z,5.44
2019-03-13T09:55:26.666Z,5.49
2019-03-13T10:00:36.435Z,5.67
2019-03-13T10:05:47.332Z,5.81
2019-03-13T10:10:54.092Z,6.04
2019-03-13T10:16:16.993Z,5.75
2019-03-13T10:21:26.847Z,5.89
2019-03-13T10:26:45.235Z,5.94
2019-03-13T10:31:57.710Z,6.35
2019-03-13T10:37:19.311Z,6.63
2019-03-13T10:42:26.201Z,6.62
2019-03-13T10:47:38.837Z,6.92
2019-03-13T10:53:01.024Z,7.23
2019-03-13T10:58:07.843Z,7.46
2019-03-13T11:03:14.829Z,7.89
2019-03-13T11:08:36.850Z,7.89
2019-03-13T11:13:46.404Z,7.79
2019-03-13T11:18:53.151Z,7.76
2019-03-13T11:24:08.890Z,7.97
2019-03-13T11:29:30.902Z,8.63
2019-03-13T11:34:37.649Z,8.50
2019-03-13T11:39:53.525Z,7.76
2019-03-13T11:45:09.291Z,8.17
2019-03-13T11:50:16.218Z,8.26
2019-03-13T11:55:38.388Z,8.64
2019-03-13T12:00:57.650Z,8.45
2019-03-13T12:06:13.098Z,8.77
2019-03-13T12:11:22.671Z,8.76
2019-03-13T12:16:29.560Z,8.76
2019-03-13T12:21:42.308Z,8.79
2019-03-13T12:26:49.212Z,8.95
2019-03-13T12:32:04.765Z,9.25
2019-03-13T12:37:26.492Z,9.57
2019-03-13T12:42:42.280Z,9.27
2019-03-13T12:47:57.701Z,9.32
2019-03-13T12:53:04.402Z,9.68
2019-03-13T12:58:17.295Z,9.83
2019-03-13T13:03:42.782Z,10.22
2019-03-13T13:08:58.178Z,10.18
2019-03-13T13:14:05.087Z,9.98
2019-03-13T13:19:10.447Z,9.82
2019-03-13T13:24:17.563Z,9.94
2019-03-13T13:29:23.181Z,9.76
2019-03-13T13:34:28.274Z,9.84
2019-03-13T13:39:33.621Z,9.85
2019-03-13T13:44:38.935Z,9.74
2019-03-13T13:49:44.029Z,9.68
2019-03-13T13:54:49.125Z,9.63
2019-03-13T13:59:54.187Z,9.61
2019-03-13T14:04:59.239Z,9.45
2019-03-13T14:10:07.893Z,9.47
2019-03-13T14:15:14.789Z,9.37
2019-03-13T14:20:19.992Z,9.17
2019-03-13T14:25:25.272Z,9.18
2019-03-13T14:30:30.530Z,9.12
2019-03-13T14:35:35.679Z,9.07
2019-03-13T14:40:40.714Z,9.06
2019-03-13T14:45:46.034Z,9.30
2019-03-13T14:50:51.200Z,9.36
2019-03-13T14:55:56.394Z,9.29
2019-03-13T15:01:03.030Z,9.24
2019-03-13T15:06:08.264Z,9.02
2019-03-13T15:11:13.355Z,9.07
2019-03-13T15:16:18.854Z,9.01
2019-03-13T15:21:23.963Z,8.93
2019-03-13T15:26:29.233Z,8.81
2019-03-13T15:31:34.417Z,8.85
2019-03-13T15:36:39.559Z,8.67
2019-03-13T15:41:44.768Z,8.70
2019-03-13T15:46:50.179Z,8.63
2019-03-13T15:51:55.342Z,8.54
2019-03-13T15:57:00.406Z,8.49
2019-03-13T16:02:05.596Z,8.50
2019-03-13T16:07:10.722Z,8.45
2019-03-13T16:12:15.856Z,8.32
2019-03-13T16:17:21.109Z,8.35
2019-03-13T16:22:26.234Z,8.28
2019-03-13T16:27:31.458Z,8.26
2019-03-13T16:32:43.853Z,8.33
2019-03-13T16:37:43.670Z,8.20
2019-03-13T16:42:48.764Z,8.24
2019-03-13T16:47:54.368Z,8.16
2019-03-13T16:52:59.650Z,8.17
2019-03-13T16:58:05.269Z,8.06
2019-03-13T17:03:10.479Z,8.17
2019-03-13T17:08:15.802Z,8.04
2019-03-13T17:13:20.975Z,8.02
2019-03-13T17:18:26.164Z,8.04
2019-03-13T17:23:31.385Z,8.03
2019-03-13T17:28:36.588Z,8.04
2019-03-13T17:33:41.728Z,7.91
2019-03-13T17:38:46.912Z,7.91
2019-03-13T17:43:52.285Z,7.84
2019-03-13T17:48:59.566Z,7.91
2019-03-13T17:54:05.937Z,7.92
2019-03-13T17:59:11.034Z,7.91
2019-03-13T18:04:16.185Z,7.88
2019-03-13T18:09:21.223Z,7.83
2019-03-13T18:14:29.597Z,7.94
2019-03-13T18:19:33.166Z,7.90
2019-03-13T18:24:38.608Z,7.80
2019-03-13T18:29:43.633Z,7.85
2019-03-13T18:34:48.667Z,7.70
2019-03-13T18:39:53.717Z,7.76
2019-03-13T18:44:58.897Z,7.82
2019-03-13T18:50:07.607Z,7.78
2019-03-13T18:55:15.763Z,7.83
2019-03-13T19:00:26.546Z,7.62
2019-03-13T19:05:36.759Z,7.69
2019-03-13T19:10:42.129Z,7.73
2019-03-13T19:15:47.365Z,7.76
2019-03-13T19:20:53.844Z,7.71
2019-03-13T19:25:59.648Z,7.73
2019-03-13T19:31:04.815Z,7.72
2019-03-13T19:36:09.976Z,7.63
2019-03-13T19:41:15.368Z,7.73
2019-03-13T19:46:20.796Z,7.67
2019-03-13T19:51:25.935Z,7.58
2019-03-13T19:56:31.256Z,7.62
2019-03-13T20:01:36.792Z,7.68
2019-03-13T20:06:42.661Z,7.67
2019-03-13T20:11:47.897Z,7.62
2019-03-13T20:16:53.118Z,7.69
2019-03-13T20:21:58.203Z,7.63
2019-03-13T20:27:03.499Z,7.67
2019-03-13T20:32:08.715Z,7.67
2019-03-13T20:37:13.952Z,7.74
2019-03-13T20:42:19.706Z,7.68
2019-03-13T20:47:25.049Z,7.72
2019-03-13T20:52:30.333Z,7.71
2019-03-13T20:57:36.648Z,7.76
2019-03-13T21:02:42.454Z,7.72
2019-03-13T21:07:47.719Z,7.68
2019-03-13T21:12:53.045Z,7.70
2019-03-13T21:17:58.298Z,7.74
2019-03-13T21:23:03.564Z,7.66
2019-03-13T21:28:08.766Z,7.68
2019-03-13T21:33:13.921Z,7.61
2019-03-13T21:38:19.787Z,7.58
2019-03-13T21:43:24.889Z,7.65
2019-03-13T21:48:30.108Z,7.56
2019-03-13T21:53:35.520Z,7.63
2019-03-13T21:58:40.573Z,7.58
2019-03-13T22:03:45.641Z,7.51
2019-03-13T22:08:50.819Z,7.50
2019-03-13T22:13:56.003Z,7.56
2019-03-13T22:19:01.203Z,7.58
2019-03-13T22:24:06.317Z,7.56
2019-03-13T22:29:11.615Z,7.54
2019-03-13T22:34:16.885Z,7.53
2019-03-13T22:39:21.942Z,7.56
2019-03-13T22:44:26.988Z,7.52
2019-03-13T22:49:32.094Z,7.59
2019-03-13T22:54:37.518Z,7.67
2019-03-13T22:59:42.750Z,7.59
2019-03-13T23:04:48.142Z,7.64
2019-03-13T23:09:53.468Z,7.61
2019-03-13T23:14:58.602Z,7.64
2019-03-13T23:20:04.332Z,7.66
2019-03-13T23:25:10.676Z,7.57
2019-03-13T23:30:16.236Z,7.42
2019-03-13T23:35:21.893Z,7.36
2019-03-13T23:40:26.999Z,7.30
2019-03-13T23:45:33.453Z,7.14
2019-03-13T23:50:38.496Z,7.14
2019-03-13T23:55:43.764Z,7.01
